sensor_id;sensor_type;location;lat;lon;timestamp;P1;durP1;ratioP1;P2;durP2;ratioP2
16326;SDS011;34812;49.846;9.610;2023-08-06T00:02:16;1.77;;;1.38;;
16326;SDS011;34812;49.846;9.610;2023-08-06T00:07:19;1.35;;;1.25;;
16326;SDS011;34812;49.846;9.610;2023-08-06T00:12:22;1.42;;;1.30;;
16326;SDS011;34812;49.846;9.610;2023-08-06T00:17:24;1.30;;;1.20;;
16326;SDS011;34812;49.846;9.610;2023-08-06T00:22:26;1.65;;;1.55;;
16326;SDS011;34812;49.846;9.610;2023-08-06T00:27:30;1.33;;;1.23;;
16326;SDS011;34812;49.846;9.610;2023-08-06T00:32:32;2.70;;;1.13;;
16326;SDS011;34812;49.846;9.610;2023-08-06T00:37:34;1.40;;;1.27;;
16326;SDS011;34812;49.846;9.610;2023-08-06T00:42:38;3.75;;;1.63;;
16326;SDS011;34812;49.846;9.610;2023-08-06T00:47:40;2.60;;;1.40;;
16326;SDS011;34812;49.846;9.610;2023-08-06T00:52:43;1.30;;;1.15;;
16326;SDS011;34812;49.846;9.610;2023-08-06T00:57:46;2.60;;;1.48;;
16326;SDS011;34812;49.846;9.610;2023-08-06T01:02:50;1.58;;;1.30;;
16326;SDS011;34812;49.846;9.610;2023-08-06T01:07:56;1.60;;;1.38;;
16326;SDS011;34812;49.846;9.610;2023-08-06T01:13:07;1.45;;;1.35;;
16326;SDS011;34812;49.846;9.610;2023-08-06T01:18:10;1.58;;;1.42;;
16326;SDS011;34812;49.846;9.610;2023-08-06T01:23:14;3.33;;;1.73;;
16326;SDS011;34812;49.846;9.610;2023-08-06T01:28:18;1.30;;;1.20;;
16326;SDS011;34812;49.846;9.610;2023-08-06T01:33:22;2.80;;;1.40;;
16326;SDS011;34812;49.846;9.610;2023-08-06T01:38:26;2.13;;;1.40;;
16326;SDS011;34812;49.846;9.610;2023-08-06T01:43:28;1.40;;;1.30;;
16326;SDS011;34812;49.846;9.610;2023-08-06T01:48:30;1.65;;;1.30;;
16326;SDS011;34812;49.846;9.610;2023-08-06T01:53:34;1.13;;;1.05;;
16326;SDS011;34812;49.846;9.610;2023-08-06T01:58:36;1.35;;;1.25;;
16326;SDS011;34812;49.846;9.610;2023-08-06T02:03:38;2.40;;;1.42;;
16326;SDS011;34812;49.846;9.610;2023-08-06T02:08:42;1.88;;;1.30;;
16326;SDS011;34812;49.846;9.610;2023-08-06T02:13:44;3.80;;;1.67;;
16326;SDS011;34812;49.846;9.610;2023-08-06T02:18:52;2.67;;;1.23;;
16326;SDS011;34812;49.846;9.610;2023-08-06T02:23:55;1.45;;;1.35;;
16326;SDS011;34812;49.846;9.610;2023-08-06T02:28:57;1.33;;;1.15;;
16326;SDS011;34812;49.846;9.610;2023-08-06T02:34:00;1.02;;;0.93;;
16326;SDS011;34812;49.846;9.610;2023-08-06T02:39:03;1.20;;;1.10;;
16326;SDS011;34812;49.846;9.610;2023-08-06T02:44:05;1.48;;;1.13;;
16326;SDS011;34812;49.846;9.610;2023-08-06T02:49:08;1.38;;;1.25;;
16326;SDS011;34812;49.846;9.610;2023-08-06T02:54:11;1.13;;;1.00;;
16326;SDS011;34812;49.846;9.610;2023-08-06T02:59:13;1.05;;;1.00;;
16326;SDS011;34812;49.846;9.610;2023-08-06T03:04:26;1.45;;;1.10;;
16326;SDS011;34812;49.846;9.610;2023-08-06T03:09:30;1.30;;;1.15;;
16326;SDS011;34812;49.846;9.610;2023-08-06T03:14:33;3.53;;;1.40;;
16326;SDS011;34812;49.846;9.610;2023-08-06T03:19:36;2.10;;;1.13;;
16326;SDS011;34812;49.846;9.610;2023-08-06T03:24:40;3.25;;;1.40;;
16326;SDS011;34812;49.846;9.610;2023-08-06T03:29:43;2.03;;;1.30;;
16326;SDS011;34812;49.846;9.610;2023-08-06T03:34:45;1.90;;;1.58;;
16326;SDS011;34812;49.846;9.610;2023-08-06T03:39:50;1.00;;;0.95;;
16326;SDS011;34812;49.846;9.610;2023-08-06T03:44:53;1.40;;;1.20;;
16326;SDS011;34812;49.846;9.610;2023-08-06T03:49:55;2.97;;;1.08;;
16326;SDS011;34812;49.846;9.610;2023-08-06T03:54:59;1.75;;;1.35;;
16326;SDS011;34812;49.846;9.610;2023-08-06T04:00:01;1.80;;;1.30;;
16326;SDS011;34812;49.846;9.610;2023-08-06T04:05:15;4.78;;;1.42;;
16326;SDS011;34812;49.846;9.610;2023-08-06T04:10:19;1.02;;;1.02;;
16326;SDS011;34812;49.846;9.610;2023-08-06T04:15:21;1.60;;;1.50;;
16326;SDS011;34812;49.846;9.610;2023-08-06T04:20:24;1.25;;;1.10;;
16326;SDS011;34812;49.846;9.610;2023-08-06T04:25:27;2.13;;;1.33;;
16326;SDS011;34812;49.846;9.610;2023-08-06T04:30:29;1.17;;;1.08;;
16326;SDS011;34812;49.846;9.610;2023-08-06T04:35:32;2.72;;;1.15;;
16326;SDS011;34812;49.846;9.610;2023-08-06T04:40:36;3.28;;;1.40;;
16326;SDS011;34812;49.846;9.610;2023-08-06T04:45:39;1.05;;;0.82;;
16326;SDS011;34812;49.846;9.610;2023-08-06T04:50:48;1.08;;;0.80;;
16326;SDS011;34812;49.846;9.610;2023-08-06T04:55:52;1.42;;;1.33;;
16326;SDS011;34812;49.846;9.610;2023-08-06T05:00:54;0.90;;;0.77;;
16326;SDS011;34812;49.846;9.610;2023-08-06T05:05:56;3.55;;;1.20;;
16326;SDS011;34812;49.846;9.610;2023-08-06T05:10:59;0.80;;;0.80;;
16326;SDS011;34812;49.846;9.610;2023-08-06T05:16:02;0.90;;;0.90;;
16326;SDS011;34812;49.846;9.610;2023-08-06T05:21:04;1.75;;;0.98;;
16326;SDS011;34812;49.846;9.610;2023-08-06T05:26:07;0.80;;;0.80;;
16326;SDS011;34812;49.846;9.610;2023-08-06T05:31:09;1.08;;;0.95;;
16326;SDS011;34812;49.846;9.610;2023-08-06T05:36:12;1.60;;;1.15;;
16326;SDS011;34812;49.846;9.610;2023-08-06T05:41:15;3.00;;;1.10;;
16326;SDS011;34812;49.846;9.610;2023-08-06T05:46:17;1.15;;;0.80;;
16326;SDS011;34812;49.846;9.610;2023-08-06T05:51:19;0.82;;;0.82;;
16326;SDS011;34812;49.846;9.610;2023-08-06T05:56:23;0.90;;;0.70;;
16326;SDS011;34812;49.846;9.610;2023-08-06T06:01:25;0.68;;;0.68;;
16326;SDS011;34812;49.846;9.610;2023-08-06T06:06:27;2.42;;;0.70;;
16326;SDS011;34812;49.846;9.610;2023-08-06T06:11:30;1.10;;;0.70;;
16326;SDS011;34812;49.846;9.610;2023-08-06T06:16:33;0.60;;;0.60;;
16326;SDS011;34812;49.846;9.610;2023-08-06T06:21:36;0.70;;;0.70;;
16326;SDS011;34812;49.846;9.610;2023-08-06T06:26:40;1.63;;;1.02;;
16326;SDS011;34812;49.846;9.610;2023-08-06T06:31:42;1.55;;;1.08;;
16326;SDS011;34812;49.846;9.610;2023-08-06T06:36:44;1.95;;;0.90;;
16326;SDS011;34812;49.846;9.610;2023-08-06T06:41:47;6.15;;;1.20;;
16326;SDS011;34812;49.846;9.610;2023-08-06T06:46:59;1.00;;;0.90;;
16326;SDS011;34812;49.846;9.610;2023-08-06T06:52:01;2.72;;;1.40;;
16326;SDS011;34812;49.846;9.610;2023-08-06T06:57:05;2.03;;;0.85;;
16326;SDS011;34812;49.846;9.610;2023-08-06T07:02:07;4.53;;;1.27;;
16326;SDS011;34812;49.846;9.610;2023-08-06T07:07:09;1.90;;;0.88;;
16326;SDS011;34812;49.846;9.610;2023-08-06T07:12:13;0.93;;;0.52;;
16326;SDS011;34812;49.846;9.610;2023-08-06T07:17:15;1.33;;;0.52;;
16326;SDS011;34812;49.846;9.610;2023-08-06T07:22:17;0.30;;;0.30;;
16326;SDS011;34812;49.846;9.610;2023-08-06T07:27:21;0.20;;;0.20;;
16326;SDS011;34812;49.846;9.610;2023-08-06T07:32:23;0.30;;;0.30;;
16326;SDS011;34812;49.846;9.610;2023-08-06T07:37:25;0.40;;;0.30;;
16326;SDS011;34812;49.846;9.610;2023-08-06T07:42:29;1.65;;;0.30;;
16326;SDS011;34812;49.846;9.610;2023-08-06T07:47:31;0.30;;;0.30;;
16326;SDS011;34812;49.846;9.610;2023-08-06T07:52:33;0.68;;;0.30;;
16326;SDS011;34812;49.846;9.610;2023-08-06T07:57:37;0.30;;;0.30;;
16326;SDS011;34812;49.846;9.610;2023-08-06T08:02:39;0.30;;;0.30;;
16326;SDS011;34812;49.846;9.610;2023-08-06T08:07:41;2.83;;;0.30;;
16326;SDS011;34812;49.846;9.610;2023-08-06T08:12:45;0.63;;;0.40;;
16326;SDS011;34812;49.846;9.610;2023-08-06T08:17:47;0.17;;;0.17;;
16326;SDS011;34812;49.846;9.610;2023-08-06T08:22:50;0.20;;;0.20;;
16326;SDS011;34812;49.846;9.610;2023-08-06T08:27:53;0.30;;;0.30;;
16326;SDS011;34812;49.846;9.610;2023-08-06T08:32:55;0.20;;;0.20;;
16326;SDS011;34812;49.846;9.610;2023-08-06T08:37:57;1.45;;;0.38;;
16326;SDS011;34812;49.846;9.610;2023-08-06T08:43:01;0.30;;;0.20;;
16326;SDS011;34812;49.846;9.610;2023-08-06T08:48:04;0.20;;;0.20;;
16326;SDS011;34812;49.846;9.610;2023-08-06T08:53:06;0.30;;;0.30;;
16326;SDS011;34812;49.846;9.610;2023-08-06T08:58:10;0.32;;;0.30;;
16326;SDS011;34812;49.846;9.610;2023-08-06T09:03:12;0.22;;;0.20;;
16326;SDS011;34812;49.846;9.610;2023-08-06T09:08:15;0.10;;;0.10;;
16326;SDS011;34812;49.846;9.610;2023-08-06T09:13:21;0.95;;;0.28;;
16326;SDS011;34812;49.846;9.610;2023-08-06T09:18:27;0.80;;;0.20;;
16326;SDS011;34812;49.846;9.610;2023-08-06T09:23:29;0.30;;;0.30;;
16326;SDS011;34812;49.846;9.610;2023-08-06T09:28:37;0.20;;;0.20;;
16326;SDS011;34812;49.846;9.610;2023-08-06T09:33:42;3.38;;;0.30;;
16326;SDS011;34812;49.846;9.610;2023-08-06T09:38:45;0.40;;;0.25;;
16326;SDS011;34812;49.846;9.610;2023-08-06T09:43:48;0.68;;;0.25;;
16326;SDS011;34812;49.846;9.610;2023-08-06T09:48:51;1.05;;;0.43;;
16326;SDS011;34812;49.846;9.610;2023-08-06T09:53:53;0.20;;;0.20;;
16326;SDS011;34812;49.846;9.610;2023-08-06T09:58:56;0.22;;;0.22;;
16326;SDS011;34812;49.846;9.610;2023-08-06T10:04:00;0.20;;;0.20;;
16326;SDS011;34812;49.846;9.610;2023-08-06T10:09:02;0.28;;;0.28;;
16326;SDS011;34812;49.846;9.610;2023-08-06T10:14:06;0.63;;;0.30;;
16326;SDS011;34812;49.846;9.610;2023-08-06T10:19:10;0.20;;;0.20;;
16326;SDS011;34812;49.846;9.610;2023-08-06T10:24:13;0.20;;;0.20;;
16326;SDS011;34812;49.846;9.610;2023-08-06T10:29:36;1.55;;;0.20;;
16326;SDS011;34812;49.846;9.610;2023-08-06T10:34:54;0.47;;;0.20;;
16326;SDS011;34812;49.846;9.610;2023-08-06T10:39:57;0.30;;;0.30;;
16326;SDS011;34812;49.846;9.610;2023-08-06T10:45:13;0.20;;;0.20;;
16326;SDS011;34812;49.846;9.610;2023-08-06T10:50:16;0.15;;;0.13;;
16326;SDS011;34812;49.846;9.610;2023-08-06T10:55:22;0.17;;;0.17;;
16326;SDS011;34812;49.846;9.610;2023-08-06T11:00:26;0.20;;;0.20;;
16326;SDS011;34812;49.846;9.610;2023-08-06T11:05:28;0.73;;;0.40;;
16326;SDS011;34812;49.846;9.610;2023-08-06T11:10:32;0.52;;;0.45;;
16326;SDS011;34812;49.846;9.610;2023-08-06T11:15:35;0.20;;;0.20;;
16326;SDS011;34812;49.846;9.610;2023-08-06T11:20:38;0.28;;;0.25;;
16326;SDS011;34812;49.846;9.610;2023-08-06T11:25:43;0.30;;;0.30;;
16326;SDS011;34812;49.846;9.610;2023-08-06T11:30:47;0.30;;;0.30;;
16326;SDS011;34812;49.846;9.610;2023-08-06T11:35:49;0.22;;;0.22;;
16326;SDS011;34812;49.846;9.610;2023-08-06T11:40:51;0.10;;;0.10;;
16326;SDS011;34812;49.846;9.610;2023-08-06T11:45:55;0.30;;;0.30;;
16326;SDS011;34812;49.846;9.610;2023-08-06T11:50:57;0.20;;;0.20;;
16326;SDS011;34812;49.846;9.610;2023-08-06T11:55:59;0.20;;;0.20;;
16326;SDS011;34812;49.846;9.610;2023-08-06T12:07:06;0.30;;;0.30;;
16326;SDS011;34812;49.846;9.610;2023-08-06T12:12:08;0.20;;;0.20;;
16326;SDS011;34812;49.846;9.610;2023-08-06T12:17:11;0.80;;;0.38;;
16326;SDS011;34812;49.846;9.610;2023-08-06T12:22:14;0.35;;;0.20;;
16326;SDS011;34812;49.846;9.610;2023-08-06T12:27:16;0.20;;;0.20;;
16326;SDS011;34812;49.846;9.610;2023-08-06T12:32:19;0.20;;;0.20;;
16326;SDS011;34812;49.846;9.610;2023-08-06T12:37:23;0.63;;;0.60;;
16326;SDS011;34812;49.846;9.610;2023-08-06T12:42:25;4.10;;;0.30;;
16326;SDS011;34812;49.846;9.610;2023-08-06T12:47:27;0.20;;;0.20;;
16326;SDS011;34812;49.846;9.610;2023-08-06T12:52:31;0.20;;;0.20;;
16326;SDS011;34812;49.846;9.610;2023-08-06T12:57:33;0.20;;;0.20;;
16326;SDS011;34812;49.846;9.610;2023-08-06T13:02:35;0.40;;;0.40;;
16326;SDS011;34812;49.846;9.610;2023-08-06T13:07:39;0.30;;;0.30;;
16326;SDS011;34812;49.846;9.610;2023-08-06T13:12:41;0.30;;;0.30;;
16326;SDS011;34812;49.846;9.610;2023-08-06T13:17:43;0.20;;;0.20;;
16326;SDS011;34812;49.846;9.610;2023-08-06T13:22:47;0.22;;;0.22;;
16326;SDS011;34812;49.846;9.610;2023-08-06T13:27:50;0.20;;;0.20;;
16326;SDS011;34812;49.846;9.610;2023-08-06T13:32:52;0.30;;;0.30;;
16326;SDS011;34812;49.846;9.610;2023-08-06T13:37:57;0.85;;;0.30;;
16326;SDS011;34812;49.846;9.610;2023-08-06T13:43:02;0.30;;;0.30;;
16326;SDS011;34812;49.846;9.610;2023-08-06T13:48:04;0.20;;;0.20;;
16326;SDS011;34812;49.846;9.610;2023-08-06T13:53:08;1.55;;;0.38;;
16326;SDS011;34812;49.846;9.610;2023-08-06T13:58:10;0.40;;;0.40;;
16326;SDS011;34812;49.846;9.610;2023-08-06T14:03:13;0.40;;;0.30;;
16326;SDS011;34812;49.846;9.610;2023-08-06T14:08:16;0.30;;;0.30;;
16326;SDS011;34812;49.846;9.610;2023-08-06T14:13:19;0.30;;;0.30;;
16326;SDS011;34812;49.846;9.610;2023-08-06T14:18:21;1.27;;;0.30;;
16326;SDS011;34812;49.846;9.610;2023-08-06T14:23:24;0.60;;;0.50;;
16326;SDS011;34812;49.846;9.610;2023-08-06T14:28:26;0.52;;;0.35;;
16326;SDS011;34812;49.846;9.610;2023-08-06T14:33:28;0.25;;;0.25;;
16326;SDS011;34812;49.846;9.610;2023-08-06T14:38:32;0.22;;;0.22;;
16326;SDS011;34812;49.846;9.610;2023-08-06T14:43:34;0.25;;;0.25;;
16326;SDS011;34812;49.846;9.610;2023-08-06T14:48:36;0.28;;;0.20;;
16326;SDS011;34812;49.846;9.610;2023-08-06T14:53:40;0.30;;;0.30;;
16326;SDS011;34812;49.846;9.610;2023-08-06T14:58:42;1.80;;;0.77;;
16326;SDS011;34812;49.846;9.610;2023-08-06T15:03:44;0.40;;;0.40;;
16326;SDS011;34812;49.846;9.610;2023-08-06T15:08:48;0.70;;;0.30;;
16326;SDS011;34812;49.846;9.610;2023-08-06T15:13:50;0.38;;;0.30;;
16326;SDS011;34812;49.846;9.610;2023-08-06T15:18:52;0.52;;;0.40;;
16326;SDS011;34812;49.846;9.610;2023-08-06T15:23:55;0.40;;;0.40;;
16326;SDS011;34812;49.846;9.610;2023-08-06T15:28:57;0.32;;;0.32;;
16326;SDS011;34812;49.846;9.610;2023-08-06T15:34:00;1.00;;;0.40;;
16326;SDS011;34812;49.846;9.610;2023-08-06T15:39:05;0.63;;;0.50;;
16326;SDS011;34812;49.846;9.610;2023-08-06T15:44:07;0.30;;;0.30;;
16326;SDS011;34812;49.846;9.610;2023-08-06T15:49:09;0.20;;;0.20;;
16326;SDS011;34812;49.846;9.610;2023-08-06T15:54:12;0.30;;;0.30;;
16326;SDS011;34812;49.846;9.610;2023-08-06T15:59:21;0.20;;;0.20;;
16326;SDS011;34812;49.846;9.610;2023-08-06T16:04:23;0.90;;;0.40;;
16326;SDS011;34812;49.846;9.610;2023-08-06T16:09:26;0.30;;;0.30;;
16326;SDS011;34812;49.846;9.610;2023-08-06T16:14:28;0.40;;;0.40;;
16326;SDS011;34812;49.846;9.610;2023-08-06T16:19:30;0.43;;;0.40;;
16326;SDS011;34812;49.846;9.610;2023-08-06T16:24:34;0.55;;;0.20;;
16326;SDS011;34812;49.846;9.610;2023-08-06T16:29:36;0.30;;;0.30;;
16326;SDS011;34812;49.846;9.610;2023-08-06T16:34:39;0.15;;;0.15;;
16326;SDS011;34812;49.846;9.610;2023-08-06T16:39:42;0.30;;;0.30;;
16326;SDS011;34812;49.846;9.610;2023-08-06T16:44:44;0.20;;;0.20;;
16326;SDS011;34812;49.846;9.610;2023-08-06T16:49:46;0.40;;;0.30;;
16326;SDS011;34812;49.846;9.610;2023-08-06T16:54:50;0.32;;;0.30;;
16326;SDS011;34812;49.846;9.610;2023-08-06T16:59:52;0.30;;;0.30;;
16326;SDS011;34812;49.846;9.610;2023-08-06T17:04:54;0.20;;;0.20;;
16326;SDS011;34812;49.846;9.610;2023-08-06T17:09:58;0.20;;;0.20;;
16326;SDS011;34812;49.846;9.610;2023-08-06T17:15:00;0.40;;;0.40;;
16326;SDS011;34812;49.846;9.610;2023-08-06T17:20:02;0.35;;;0.30;;
16326;SDS011;34812;49.846;9.610;2023-08-06T17:25:06;0.60;;;0.53;;
16326;SDS011;34812;49.846;9.610;2023-08-06T17:30:08;0.67;;;0.47;;
16326;SDS011;34812;49.846;9.610;2023-08-06T17:35:11;0.30;;;0.30;;
16326;SDS011;34812;49.846;9.610;2023-08-06T17:40:14;0.40;;;0.40;;
16326;SDS011;34812;49.846;9.610;2023-08-06T17:45:16;0.30;;;0.30;;
16326;SDS011;34812;49.846;9.610;2023-08-06T17:50:19;0.50;;;0.40;;
16326;SDS011;34812;49.846;9.610;2023-08-06T17:55:22;0.57;;;0.57;;
16326;SDS011;34812;49.846;9.610;2023-08-06T18:00:26;2.43;;;0.50;;
16326;SDS011;34812;49.846;9.610;2023-08-06T18:05:28;0.93;;;0.50;;
16326;SDS011;34812;49.846;9.610;2023-08-06T18:10:32;0.40;;;0.40;;
16326;SDS011;34812;49.846;9.610;2023-08-06T18:15:34;0.30;;;0.30;;
16326;SDS011;34812;49.846;9.610;2023-08-06T18:20:37;0.83;;;0.27;;
16326;SDS011;34812;49.846;9.610;2023-08-06T18:25:40;3.97;;;0.60;;
16326;SDS011;34812;49.846;9.610;2023-08-06T18:30:42;0.30;;;0.30;;
16326;SDS011;34812;49.846;9.610;2023-08-06T18:35:45;0.50;;;0.50;;
16326;SDS011;34812;49.846;9.610;2023-08-06T18:40:48;0.37;;;0.33;;
16326;SDS011;34812;49.846;9.610;2023-08-06T18:45:56;0.33;;;0.33;;
16326;SDS011;34812;49.846;9.610;2023-08-06T18:50:58;0.30;;;0.20;;
16326;SDS011;34812;49.846;9.610;2023-08-06T18:56:02;0.30;;;0.30;;
16326;SDS011;34812;49.846;9.610;2023-08-06T19:01:04;0.40;;;0.40;;
16326;SDS011;34812;49.846;9.610;2023-08-06T19:06:06;0.50;;;0.50;;
16326;SDS011;34812;49.846;9.610;2023-08-06T19:11:11;0.87;;;0.40;;
16326;SDS011;34812;49.846;9.610;2023-08-06T19:16:13;1.17;;;0.30;;
16326;SDS011;34812;49.846;9.610;2023-08-06T19:21:15;0.40;;;0.40;;
16326;SDS011;34812;49.846;9.610;2023-08-06T19:26:18;2.53;;;0.50;;
16326;SDS011;34812;49.846;9.610;2023-08-06T19:31:20;0.40;;;0.40;;
16326;SDS011;34812;49.846;9.610;2023-08-06T19:36:22;0.50;;;0.50;;
16326;SDS011;34812;49.846;9.610;2023-08-06T19:41:26;1.10;;;0.57;;
16326;SDS011;34812;49.846;9.610;2023-08-06T19:46:28;0.50;;;0.50;;
16326;SDS011;34812;49.846;9.610;2023-08-06T19:51:30;0.40;;;0.40;;
16326;SDS011;34812;49.846;9.610;2023-08-06T19:56:33;0.40;;;0.40;;
16326;SDS011;34812;49.846;9.610;2023-08-06T20:01:35;2.23;;;0.40;;
16326;SDS011;34812;49.846;9.610;2023-08-06T20:06:38;0.40;;;0.40;;
16326;SDS011;34812;49.846;9.610;2023-08-06T20:11:42;0.50;;;0.50;;
16326;SDS011;34812;49.846;9.610;2023-08-06T20:16:44;0.40;;;0.40;;
16326;SDS011;34812;49.846;9.610;2023-08-06T20:21:46;0.80;;;0.53;;
16326;SDS011;34812;49.846;9.610;2023-08-06T20:26:50;0.30;;;0.30;;
16326;SDS011;34812;49.846;9.610;2023-08-06T20:31:52;1.50;;;0.40;;
16326;SDS011;34812;49.846;9.610;2023-08-06T20:36:54;0.37;;;0.37;;
16326;SDS011;34812;49.846;9.610;2023-08-06T20:41:58;0.40;;;0.40;;
16326;SDS011;34812;49.846;9.610;2023-08-06T20:47:00;0.30;;;0.30;;
16326;SDS011;34812;49.846;9.610;2023-08-06T20:52:03;0.30;;;0.30;;
16326;SDS011;34812;49.846;9.610;2023-08-06T20:57:06;0.50;;;0.50;;
16326;SDS011;34812;49.846;9.610;2023-08-06T21:02:08;0.40;;;0.40;;
16326;SDS011;34812;49.846;9.610;2023-08-06T21:07:11;0.30;;;0.30;;
16326;SDS011;34812;49.846;9.610;2023-08-06T21:12:14;0.30;;;0.30;;
16326;SDS011;34812;49.846;9.610;2023-08-06T21:17:16;0.87;;;0.77;;
16326;SDS011;34812;49.846;9.610;2023-08-06T21:22:18;0.30;;;0.30;;
16326;SDS011;34812;49.846;9.610;2023-08-06T21:27:22;0.30;;;0.30;;
16326;SDS011;34812;49.846;9.610;2023-08-06T21:32:24;0.57;;;0.40;;
16326;SDS011;34812;49.846;9.610;2023-08-06T21:37:26;0.53;;;0.40;;
16326;SDS011;34812;49.846;9.610;2023-08-06T21:42:29;0.30;;;0.30;;
16326;SDS011;34812;49.846;9.610;2023-08-06T21:47:31;0.30;;;0.30;;
16326;SDS011;34812;49.846;9.610;2023-08-06T21:52:34;1.70;;;0.90;;
16326;SDS011;34812;49.846;9.610;2023-08-06T21:57:37;0.40;;;0.40;;
16326;SDS011;34812;49.846;9.610;2023-08-06T22:02:39;0.37;;;0.37;;
16326;SDS011;34812;49.846;9.610;2023-08-06T22:07:41;0.30;;;0.30;;
16326;SDS011;34812;49.846;9.610;2023-08-06T22:12:45;0.30;;;0.30;;
16326;SDS011;34812;49.846;9.610;2023-08-06T22:17:47;0.30;;;0.30;;
16326;SDS011;34812;49.846;9.610;2023-08-06T22:22:50;0.50;;;0.40;;
16326;SDS011;34812;49.846;9.610;2023-08-06T22:27:53;0.33;;;0.30;;
16326;SDS011;34812;49.846;9.610;2023-08-06T22:32:55;1.17;;;0.50;;
16326;SDS011;34812;49.846;9.610;2023-08-06T22:37:57;0.40;;;0.40;;
16326;SDS011;34812;49.846;9.610;2023-08-06T22:43:01;0.67;;;0.40;;
16326;SDS011;34812;49.846;9.610;2023-08-06T22:48:03;0.37;;;0.37;;
16326;SDS011;34812;49.846;9.610;2023-08-06T22:53:05;3.07;;;0.40;;
16326;SDS011;34812;49.846;9.610;2023-08-06T22:58:09;0.40;;;0.40;;
16326;SDS011;34812;49.846;9.610;2023-08-06T23:03:11;2.90;;;0.40;;
16326;SDS011;34812;49.846;9.610;2023-08-06T23:08:13;0.50;;;0.50;;
16326;SDS011;34812;49.846;9.610;2023-08-06T23:13:16;0.43;;;0.43;;
16326;SDS011;34812;49.846;9.610;2023-08-06T23:18:18;0.53;;;0.40;;
16326;SDS011;34812;49.846;9.610;2023-08-06T23:23:20;1.13;;;0.60;;
16326;SDS011;34812;49.846;9.610;2023-08-06T23:28:26;1.20;;;1.00;;
16326;SDS011;34812;49.846;9.610;2023-08-06T23:33:29;0.40;;;0.40;;
16326;SDS011;34812;49.846;9.610;2023-08-06T23:38:31;0.33;;;0.33;;
16326;SDS011;34812;49.846;9.610;2023-08-06T23:43:34;0.40;;;0.40;;
16326;SDS011;34812;49.846;9.610;2023-08-06T23:48:36;0.30;;;0.30;;
16326;SDS011;34812;49.846;9.610;2023-08-06T23:53:38;1.13;;;0.50;;
16326;SDS011;34812;49.846;9.610;2023-08-06T23:58:42;0.37;;;0.37;;
